Time;durP1;ratioP1;P1;durP2;ratioP2;P2;SDS_P1;SDS_P2;PMS_P1;PMS_P2;Temp;Humidity;BMP_temperature;BMP_pressure;BME280_temperature;BME280_humidity;BME280_pressure;Samples;Min_cycle;Max_cycle;Signal;HPM_P1;HPM_P2
2023/03/19 00:01:19;;;;;;;48.00;31.00;;;;;;;6.14;46.33;100425.89;110506;1265;21990;-77
2023/03/19 00:03:48;;;;;;;43.90;29.90;;;;;;;6.07;46.47;100429.64;110385;1258;22002;-78
2023/03/19 00:06:16;;;;;;;46.00;32.10;;;;;;;6.00;46.60;100431.64;110302;1265;23793;-77
2023/03/19 00:08:44;;;;;;;47.80;31.10;;;;;;;5.94;46.63;100430.89;110458;1264;23612;-77
2023/03/19 00:11:15;;;;;;;44.30;30.70;;;;;;;5.88;46.86;100433.23;110285;1260;23712;-78
2023/03/19 00:13:44;;;;;;;44.40;30.80;;;;;;;5.83;47.01;100429.84;110959;1260;21935;-78
2023/03/19 00:16:14;;;;;;;42.90;28.90;;;;;;;5.78;46.97;100432.53;110765;1260;23072;-78
2023/03/19 00:18:42;;;;;;;39.30;29.20;;;;;;;5.73;47.12;100431.04;110764;1259;21963;-79
2023/03/19 00:21:10;;;;;;;41.30;29.40;;;;;;;5.68;47.30;100425.42;110771;1259;21969;-79
2023/03/19 00:23:38;;;;;;;36.70;28.70;;;;;;;5.64;47.35;100426.54;110952;1260;23645;-78
2023/03/19 00:26:07;;;;;;;43.20;29.30;;;;;;;5.60;47.56;100432.83;110800;1253;21968;-79
2023/03/19 00:28:36;;;;;;;41.60;30.30;;;;;;;5.57;47.58;100435.80;110866;1259;22724;-79
2023/03/19 00:31:16;;;;;;;45.40;31.10;;;;;;;5.51;47.54;100433.47;110785;1260;21995;-78
2023/03/19 00:33:44;;;;;;;43.60;30.40;;;;;;;5.45;47.63;100430.46;110869;1260;21951;-76
2023/03/19 00:36:15;;;;;;;43.80;31.90;;;;;;;5.40;47.76;100428.98;110939;1257;22137;-78
2023/03/19 00:38:45;;;;;;;45.00;30.40;;;;;;;5.38;47.96;100426.77;110745;1259;21988;-77
2023/03/19 00:41:16;;;;;;;41.60;30.90;;;;;;;5.37;48.12;100424.03;110965;1260;22002;-78
2023/03/19 00:43:46;;;;;;;40.10;30.00;;;;;;;5.33;48.20;100425.12;110809;1258;21935;-77
2023/03/19 00:46:15;;;;;;;39.90;31.20;;;;;;;5.30;48.26;100423.96;110828;1258;21974;-78
2023/03/19 00:48:45;;;;;;;44.30;30.70;;;;;;;5.31;48.40;100427.74;110356;1266;21940;-78
2023/03/19 00:51:12;;;;;;;44.60;32.30;;;;;;;5.33;48.31;100425.83;109910;1264;23770;-78
2023/03/19 00:53:42;;;;;;;42.40;29.90;;;;;;;5.32;48.27;100425.82;110231;1255;23844;-77
2023/03/19 00:56:17;;;;;;;39.70;30.30;;;;;;;5.29;48.38;100426.39;110222;1266;21980;-76
2023/03/19 00:58:47;;;;;;;43.00;30.90;;;;;;;5.27;48.31;100427.29;110274;1266;22052;-77
2023/03/19 01:01:17;;;;;;;44.20;31.20;;;;;;;5.27;48.45;100426.08;110245;1266;23607;-76
2023/03/19 01:03:46;;;;;;;47.90;31.40;;;;;;;5.26;48.58;100430.56;110328;1267;21981;-77
2023/03/19 01:06:14;;;;;;;41.20;30.40;;;;;;;5.24;48.57;100426.27;110224;1256;23030;-77
2023/03/19 01:08:42;;;;;;;39.20;29.90;;;;;;;5.24;48.63;100426.80;110087;1267;22730;-77
2023/03/19 01:11:14;;;;;;;42.20;31.80;;;;;;;5.21;48.71;100428.22;110292;1266;23727;-77
2023/03/19 01:13:42;;;;;;;46.80;36.00;;;;;;;5.18;48.72;100430.18;110431;1259;22120;-78
2023/03/19 01:16:11;;;;;;;43.20;31.30;;;;;;;5.13;48.84;100429.73;110731;1260;22893;-76
2023/03/19 01:18:39;;;;;;;42.30;31.80;;;;;;;5.12;48.96;100434.75;110859;1260;21980;-78
2023/03/19 01:21:07;;;;;;;41.30;30.60;;;;;;;5.10;49.00;100430.96;110747;1260;21966;-77
2023/03/19 01:23:42;;;;;;;38.50;29.60;;;;;;;5.05;49.08;100425.00;110760;1260;21965;-76
2023/03/19 01:26:10;;;;;;;41.70;30.40;;;;;;;4.98;49.18;100421.83;110900;1260;21969;-76
2023/03/19 01:28:38;;;;;;;44.00;31.10;;;;;;;4.95;49.23;100422.39;110912;1260;23726;-76
2023/03/19 01:31:07;;;;;;;50.90;33.00;;;;;;;4.94;49.38;100421.88;110875;1260;23723;-76
2023/03/19 01:33:54;;;;;;;39.00;28.70;;;;;;;4.92;49.50;100419.66;110742;1260;21979;-78
2023/03/19 01:36:41;;;;;;;47.30;30.80;;;;;;;4.87;49.52;100419.89;110785;1259;21957;-80
2023/03/19 01:39:10;;;;;;;46.30;32.60;;;;;;;4.83;49.57;100421.52;111013;1257;22528;-75
2023/03/19 01:41:38;;;;;;;37.90;28.90;;;;;;;4.79;49.75;100423.46;110812;1260;21935;-78
2023/03/19 01:44:37;;;;;;;43.20;31.50;;;;;;;4.75;49.76;100423.34;110965;1259;21950;-78
2023/03/19 01:47:37;;;;;;;43.70;32.20;;;;;;;4.70;49.96;100421.52;110728;1256;22004;-77
2023/03/19 01:50:38;;;;;;;47.10;33.00;;;;;;;4.63;50.24;100420.89;110775;1260;23028;-78
2023/03/19 01:53:23;;;;;;;43.90;31.90;;;;;;;4.57;50.38;100419.92;110987;1259;23664;-78
2023/03/19 01:56:23;;;;;;;39.80;29.90;;;;;;;4.51;50.53;100421.71;110604;1260;23056;-77
2023/03/19 01:59:06;;;;;;;41.20;29.90;;;;;;;4.46;50.62;100421.78;110567;1259;21963;-77
2023/03/19 02:01:56;;;;;;;45.80;33.00;;;;;;;4.42;50.80;100422.01;110922;1259;24347;-78
2023/03/19 02:04:30;;;;;;;41.10;29.10;;;;;;;4.42;50.76;100420.98;110709;1259;21924;-77
2023/03/19 02:07:01;;;;;;;39.70;30.40;;;;;;;4.42;50.95;100423.73;110795;1259;21972;-77
2023/03/19 02:09:34;;;;;;;36.30;29.40;;;;;;;4.42;50.97;100425.80;109978;1267;24378;-76
2023/03/19 02:12:03;;;;;;;43.20;29.50;;;;;;;4.42;51.06;100422.69;109927;1267;22017;-77
2023/03/19 02:14:34;;;;;;;38.70;29.50;;;;;;;4.42;51.08;100417.70;109875;1267;21975;-77
2023/03/19 02:17:02;;;;;;;42.50;30.10;;;;;;;4.40;51.13;100419.10;110076;1267;23640;-76
2023/03/19 02:19:51;;;;;;;39.10;27.60;;;;;;;4.37;51.15;100413.45;110108;1265;22074;-77
2023/03/19 02:22:25;;;;;;;36.40;27.90;;;;;;;4.35;51.23;100412.79;109987;1267;21984;-77
2023/03/19 02:25:14;;;;;;;40.20;28.40;;;;;;;4.36;51.46;100414.48;109780;1268;21983;-77
2023/03/19 02:27:43;;;;;;;38.30;27.50;;;;;;;4.40;51.43;100407.55;110266;1260;22907;-77
2023/03/19 02:30:43;;;;;;;34.50;25.50;;;;;;;4.42;51.31;100402.19;110894;1260;23021;-77
2023/03/19 02:33:17;;;;;;;37.60;26.10;;;;;;;4.37;51.34;100403.11;110152;1267;21986;-79
2023/03/19 02:35:49;;;;;;;40.60;27.60;;;;;;;4.33;51.31;100406.61;109819;1267;21968;-77
2023/03/19 02:38:21;;;;;;;38.60;27.30;;;;;;;4.30;51.48;100408.52;110133;1267;22025;-76
2023/03/19 02:40:59;;;;;;;36.80;28.00;;;;;;;4.28;51.46;100408.02;109729;1267;21961;-77
2023/03/19 02:43:32;;;;;;;36.50;26.50;;;;;;;4.27;51.56;100409.93;109903;1266;22956;-77
2023/03/19 02:46:03;;;;;;;32.80;26.20;;;;;;;4.28;51.45;100406.13;110417;1267;22735;-78
2023/03/19 02:48:32;;;;;;;32.90;24.40;;;;;;;4.26;51.52;100409.25;110189;1263;22036;-77
2023/03/19 02:51:04;;;;;;;34.60;25.80;;;;;;;4.23;51.58;100411.17;109429;1271;23065;-77
2023/03/19 02:53:35;;;;;;;35.70;25.70;;;;;;;4.20;51.54;100408.29;109625;1265;22023;-77
2023/03/19 02:56:03;;;;;;;30.10;24.90;;;;;;;4.18;51.58;100409.02;108978;1276;23395;-76
2023/03/19 02:58:32;;;;;;;33.70;23.60;;;;;;;4.18;51.60;100412.96;108593;1282;22072;-76
2023/03/19 03:01:01;;;;;;;29.70;23.20;;;;;;;4.14;51.76;100410.43;108613;1282;21993;-77
2023/03/19 03:03:30;;;;;;;38.60;25.50;;;;;;;4.11;51.76;100413.90;108590;1286;22001;-77
2023/03/19 03:05:58;;;;;;;33.30;24.80;;;;;;;4.08;51.84;100413.23;108195;1279;22014;-77
2023/03/19 03:08:27;;;;;;;33.80;24.30;;;;;;;4.07;51.88;100420.82;108171;1287;22440;-78
2023/03/19 03:10:55;;;;;;;31.70;24.20;;;;;;;4.06;51.94;100420.66;108653;1281;23689;-78
2023/03/19 03:13:24;;;;;;;36.00;26.30;;;;;;;4.03;51.85;100421.20;107251;1275;2092310;-77
2023/03/19 03:15:53;;;;;;;33.60;25.00;;;;;;;3.99;52.00;100418.67;109143;1275;22005;-77
2023/03/19 03:18:21;;;;;;;32.20;25.40;;;;;;;3.95;52.08;100419.05;109225;1274;21986;-77
2023/03/19 03:20:52;;;;;;;33.00;26.50;;;;;;;3.93;52.31;100416.32;109099;1272;22924;-77
2023/03/19 03:23:22;;;;;;;37.40;26.90;;;;;;;3.93;52.33;100417.85;109570;1260;23656;-78
2023/03/19 03:25:51;;;;;;;38.60;27.60;;;;;;;3.93;52.39;100420.95;110775;1259;23716;-79
2023/03/19 03:28:22;;;;;;;40.30;25.80;;;;;;;3.91;52.36;100424.59;110730;1259;21971;-77
2023/03/19 03:30:50;;;;;;;34.60;25.50;;;;;;;3.90;52.41;100429.08;110287;1265;22558;-77
2023/03/19 03:33:19;;;;;;;33.10;25.50;;;;;;;3.89;52.48;100428.58;110300;1253;23752;-77
2023/03/19 03:35:49;;;;;;;34.50;26.20;;;;;;;3.87;52.49;100427.21;110135;1266;22014;-77
2023/03/19 03:38:20;;;;;;;33.90;25.50;;;;;;;3.83;52.61;100426.91;110383;1266;21805;-76
2023/03/19 03:40:53;;;;;;;34.50;25.90;;;;;;;3.80;52.77;100430.89;110070;1265;22007;-79
2023/03/19 03:43:25;;;;;;;40.30;27.70;;;;;;;3.78;52.87;100432.63;110316;1266;21962;-78
2023/03/19 03:45:53;;;;;;;36.00;26.30;;;;;;;3.80;53.01;100435.88;110203;1266;23715;-78
2023/03/19 03:48:25;;;;;;;38.60;28.90;;;;;;;3.82;52.95;100437.42;110199;1260;22015;-78
2023/03/19 03:50:53;;;;;;;36.90;26.60;;;;;;;3.83;52.97;100435.17;110111;1265;23218;-81
2023/03/19 03:53:25;;;;;;;33.50;24.20;;;;;;;3.85;52.98;100435.84;110243;1260;22113;-78
2023/03/19 03:55:53;;;;;;;34.40;26.30;;;;;;;3.84;52.97;100433.09;110118;1266;21974;-78
2023/03/19 03:58:23;;;;;;;33.20;24.80;;;;;;;3.85;52.89;100433.44;110247;1265;23147;-79
2023/03/19 04:00:53;;;;;;;35.40;26.60;;;;;;;3.85;52.96;100436.02;110176;1265;21986;-77
2023/03/19 04:03:23;;;;;;;32.70;23.30;;;;;;;3.86;53.06;100438.76;110134;1254;22616;-77
2023/03/19 04:05:50;;;;;;;34.70;25.20;;;;;;;3.89;53.11;100443.90;110259;1265;22038;-78
2023/03/19 04:08:18;;;;;;;31.60;24.10;;;;;;;3.90;53.03;100447.67;110228;1259;23587;-77
2023/03/19 04:10:46;;;;;;;35.10;26.20;;;;;;;3.91;53.03;100447.15;110652;1259;23679;-80
2023/03/19 04:13:21;;;;;;;31.80;25.60;;;;;;;3.94;53.16;100448.52;110979;1259;22007;-79
2023/03/19 04:15:52;;;;;;;36.40;24.10;;;;;;;3.97;53.18;100445.38;110920;1260;21978;-80
2023/03/19 04:18:21;;;;;;;30.60;25.40;;;;;;;4.01;53.11;100444.31;111099;1259;21776;-79
2023/03/19 04:20:54;;;;;;;34.30;26.80;;;;;;;4.03;53.08;100444.97;110935;1258;21973;-77
2023/03/19 04:23:27;;;;;;;32.00;24.80;;;;;;;4.03;53.00;100441.53;110783;1259;22526;-77
2023/03/19 04:26:06;;;;;;;33.40;25.30;;;;;;;4.01;52.82;100439.48;110882;1260;21975;-78
2023/03/19 04:28:34;;;;;;;35.60;26.40;;;;;;;3.98;52.80;100442.95;110758;1260;23016;-77
2023/03/19 04:31:08;;;;;;;50.60;37.90;;;;;;;3.96;52.92;100447.62;110939;1260;24991;-78
2023/03/19 04:33:39;;;;;;;49.00;38.70;;;;;;;3.95;52.95;100448.33;110564;1260;23068;-78
2023/03/19 04:36:13;;;;;;;73.60;54.90;;;;;;;3.97;52.95;100444.00;110354;1260;21981;-77
2023/03/19 04:38:44;;;;;;;72.00;53.40;;;;;;;3.97;52.92;100443.14;110604;1260;21974;-76
2023/03/19 04:41:15;;;;;;;60.00;43.20;;;;;;;3.97;53.03;100444.51;110890;1260;21977;-79
2023/03/19 04:43:51;;;;;;;44.00;32.80;;;;;;;3.98;53.17;100440.55;110746;1260;22154;-78
2023/03/19 04:46:20;;;;;;;48.60;35.20;;;;;;;3.97;53.03;100432.80;110716;1260;22874;-77
2023/03/19 04:48:50;;;;;;;59.10;35.10;;;;;;;3.93;52.93;100430.61;110750;1260;23716;-77
2023/03/19 04:51:25;;;;;;;54.70;33.20;;;;;;;3.88;53.16;100428.93;110552;1260;23168;-77
2023/03/19 04:53:53;;;;;;;33.20;24.40;;;;;;;3.87;53.38;100430.31;110604;1260;21940;-77
2023/03/19 04:56:24;;;;;;;31.30;25.40;;;;;;;3.87;53.34;100434.27;110121;1266;21994;-77
2023/03/19 04:58:53;;;;;;;41.60;27.00;;;;;;;3.84;53.56;100434.12;110171;1265;23722;-79
2023/03/19 05:01:22;;;;;;;40.00;26.80;;;;;;;3.84;53.52;100434.46;110191;1265;22723;-77
2023/03/19 05:04:19;;;;;;;32.20;24.80;;;;;;;3.81;53.53;100433.82;110054;1266;22770;-77
2023/03/19 05:06:52;;;;;;;34.90;25.30;;;;;;;3.78;53.63;100438.48;110144;1265;21980;-79
2023/03/19 05:09:24;;;;;;;43.20;27.90;;;;;;;3.78;53.75;100439.02;110086;1266;23032;-79
2023/03/19 05:11:52;;;;;;;40.60;27.10;;;;;;;3.78;53.65;100440.04;110373;1266;21974;-79
2023/03/19 05:14:22;;;;;;;34.00;26.00;;;;;;;3.78;53.65;100439.86;110422;1260;21964;-78
2023/03/19 05:17:29;;;;;;;35.20;26.70;;;;;;;3.73;53.78;100440.42;110719;1260;21983;-78
2023/03/19 05:20:20;;;;;;;32.70;24.70;;;;;;;3.72;53.86;100441.29;110825;1260;24247;-77
2023/03/19 05:22:54;;;;;;;36.10;25.30;;;;;;;3.73;53.82;100441.45;110797;1259;22025;-77
2023/03/19 05:25:34;;;;;;;32.50;25.10;;;;;;;3.72;53.90;100440.95;110403;1260;23792;-78
2023/03/19 05:28:05;;;;;;;34.50;25.20;;;;;;;3.72;53.94;100440.59;110927;1260;21976;-79
2023/03/19 05:30:37;;;;;;;33.60;24.10;;;;;;;3.75;53.99;100438.69;110638;1254;23667;-79
2023/03/19 05:33:11;;;;;;;30.70;24.00;;;;;;;3.76;53.94;100442.30;110957;1259;21974;-78
2023/03/19 05:35:44;;;;;;;35.20;25.70;;;;;;;3.77;53.89;100445.20;110836;1260;23876;-77
2023/03/19 05:38:19;;;;;;;62.50;41.70;;;;;;;3.80;54.08;100442.25;110702;1260;22010;-79
2023/03/19 05:40:53;;;;;;;46.80;33.50;;;;;;;3.83;54.12;100441.02;110737;1259;23658;-77
2023/03/19 05:43:31;;;;;;;34.90;28.50;;;;;;;3.88;54.16;100437.71;110805;1259;23589;-78
2023/03/19 05:46:01;;;;;;;44.80;29.70;;;;;;;3.94;54.16;100440.08;110822;1260;21993;-77
2023/03/19 05:48:32;;;;;;;58.70;32.70;;;;;;;3.99;54.12;100443.80;110502;1260;23192;-78
2023/03/19 05:51:06;;;;;;;42.10;26.80;;;;;;;4.05;54.07;100439.95;110709;1259;21975;-80
2023/03/19 05:53:38;;;;;;;38.20;24.90;;;;;;;4.11;54.07;100445.76;110841;1260;21982;-77
2023/03/19 05:56:25;;;;;;;39.60;25.90;;;;;;;4.19;54.23;100452.05;110800;1260;23643;-76
2023/03/19 05:59:09;;;;;;;45.40;28.10;;;;;;;4.31;54.33;100454.35;110693;1259;21960;-77
2023/03/19 06:01:40;;;;;;;35.50;24.50;;;;;;;4.43;54.11;100453.52;110516;1260;23034;-77
2023/03/19 06:04:09;;;;;;;34.80;25.00;;;;;;;4.49;53.81;100456.23;110785;1260;22002;-77
2023/03/19 06:06:37;;;;;;;37.20;24.30;;;;;;;4.55;53.90;100459.27;110536;1260;21984;-79
2023/03/19 06:09:05;;;;;;;33.60;23.70;;;;;;;4.64;53.96;100458.30;110737;1251;21996;-80
2023/03/19 06:11:39;;;;;;;36.30;26.10;;;;;;;4.73;53.77;100453.52;111178;1254;23805;-78
2023/03/19 06:14:27;;;;;;;35.00;22.10;;;;;;;4.87;53.82;100457.49;110589;1265;22743;-79
2023/03/19 06:17:14;;;;;;;34.40;24.20;;;;;;;5.00;53.71;100462.50;110283;1264;22682;-78
2023/03/19 06:19:42;;;;;;;31.50;24.50;;;;;;;5.15;53.50;100464.71;109987;1266;21975;-78
2023/03/19 06:22:11;;;;;;;37.90;24.70;;;;;;;5.30;53.28;100463.83;110490;1266;21983;-78
2023/03/19 06:24:39;;;;;;;43.80;31.60;;;;;;;5.44;53.04;100463.27;110582;1266;23068;-79
2023/03/19 06:27:08;;;;;;;32.70;25.90;;;;;;;5.56;52.78;100464.13;110154;1266;23613;-77
2023/03/19 06:29:36;;;;;;;33.00;25.20;;;;;;;5.68;52.66;100466.36;110249;1266;23953;-77
2023/03/19 06:32:15;;;;;;;31.80;24.50;;;;;;;5.82;52.63;100467.85;110466;1260;22939;-78
2023/03/19 06:34:44;;;;;;;33.00;24.30;;;;;;;5.97;52.26;100470.73;110872;1260;21976;-76
2023/03/19 06:37:12;;;;;;;42.10;27.60;;;;;;;6.09;52.05;100469.15;110872;1259;23045;-77
2023/03/19 06:39:41;;;;;;;36.90;29.50;;;;;;;6.21;51.72;100474.64;110296;1266;21972;-76
2023/03/19 06:42:09;;;;;;;32.70;25.20;;;;;;;6.34;51.55;100474.92;110184;1266;22730;-77
2023/03/19 06:44:37;;;;;;;31.10;26.30;;;;;;;6.48;51.37;100473.82;110200;1258;22881;-79
2023/03/19 06:47:07;;;;;;;35.20;26.90;;;;;;;6.65;51.46;100471.77;110412;1266;21987;-77
2023/03/19 06:49:36;;;;;;;33.10;27.50;;;;;;;6.84;51.16;100477.27;109580;1272;23731;-77
2023/03/19 06:52:04;;;;;;;32.70;26.30;;;;;;;7.04;50.91;100482.21;109530;1272;22982;-77
2023/03/19 06:54:33;;;;;;;30.00;25.40;;;;;;;7.21;50.37;100488.25;109524;1272;22300;-76
2023/03/19 06:57:03;;;;;;;32.90;27.20;;;;;;;7.33;50.08;100491.95;109663;1266;22010;-77
2023/03/19 06:59:33;;;;;;;37.70;30.70;;;;;;;7.51;50.12;100491.39;110521;1266;21995;-78
2023/03/19 07:02:02;;;;;;;60.00;48.50;;;;;;;7.84;50.56;100495.65;110220;1266;21979;-77
2023/03/19 07:04:30;;;;;;;36.70;29.60;;;;;;;8.21;50.22;100495.78;109566;1270;22070;-78
2023/03/19 07:06:58;;;;;;;44.30;31.80;;;;;;;8.46;49.11;100498.11;109793;1265;22085;-77
2023/03/19 07:09:27;;;;;;;42.30;30.20;;;;;;;8.57;48.12;100497.80;110127;1264;22443;-78
2023/03/19 07:11:55;;;;;;;39.20;28.10;;;;;;;8.64;47.75;100495.70;110448;1265;21987;-76
2023/03/19 07:14:23;;;;;;;40.80;28.00;;;;;;;8.67;47.45;100494.95;110301;1265;23700;-79
2023/03/19 07:16:54;;;;;;;36.90;27.90;;;;;;;8.76;47.46;100495.72;110055;1265;21944;-78
2023/03/19 07:19:22;;;;;;;30.40;22.70;;;;;;;8.93;47.43;100499.39;109844;1265;21972;-79
2023/03/19 07:21:50;;;;;;;27.90;22.50;;;;;;;9.02;46.55;100501.92;110322;1260;22598;-78
2023/03/19 07:24:21;;;;;;;25.70;22.90;;;;;;;9.07;46.61;100500.57;110101;1266;22319;-78
2023/03/19 07:26:50;;;;;;;25.60;21.40;;;;;;;9.11;46.60;100497.33;109646;1266;21970;-79
2023/03/19 07:29:24;;;;;;;36.20;30.90;;;;;;;9.18;46.48;100495.04;109713;1266;23780;-79
2023/03/19 07:31:54;;;;;;;28.40;22.60;;;;;;;9.34;46.60;100497.69;109977;1259;23032;-77
2023/03/19 07:34:23;;;;;;;33.00;25.20;;;;;;;9.47;46.15;100501.80;110276;1266;23930;-79
2023/03/19 07:36:54;;;;;;;29.90;24.00;;;;;;;9.60;46.00;100502.28;109768;1261;23724;-79
2023/03/19 07:39:22;;;;;;;31.80;26.50;;;;;;;9.77;46.09;100501.23;110053;1266;21981;-78
2023/03/19 07:41:50;;;;;;;27.60;23.30;;;;;;;9.89;45.52;100501.67;109980;1260;21981;-78
2023/03/19 07:44:25;;;;;;;;;;;;;;;9.99;45.08;100504.33;110656;1260;23056;-79
2023/03/19 07:46:54;;;;;;;30.70;25.50;;;;;;;10.04;45.22;100498.41;110596;1260;22037;-79
2023/03/19 07:49:23;;;;;;;28.00;23.70;;;;;;;10.16;44.91;100502.20;110713;1246;23739;-79
2023/03/19 07:51:51;;;;;;;28.00;24.90;;;;;;;10.27;44.88;100500.09;110868;1260;22825;-78
2023/03/19 07:54:22;;;;;;;29.00;23.00;;;;;;;10.39;44.48;100506.85;110666;1260;21974;-79
2023/03/19 07:56:53;;;;;;;29.10;25.90;;;;;;;10.50;44.36;100509.08;110679;1260;21970;-79
2023/03/19 07:59:24;;;;;;;29.20;24.40;;;;;;;10.63;44.36;100502.16;110744;1259;23743;-79
2023/03/19 08:01:53;;;;;;;30.40;25.20;;;;;;;10.75;43.80;100508.02;110676;1260;22747;-80
2023/03/19 08:04:21;;;;;;;29.70;24.30;;;;;;;10.80;43.49;100509.57;110100;1266;21973;-79
2023/03/19 08:06:50;;;;;;;32.10;26.40;;;;;;;10.96;43.82;100511.24;109850;1255;21964;-78
2023/03/19 08:09:20;;;;;;;30.00;25.70;;;;;;;11.17;43.57;100504.38;109952;1265;22052;-78
2023/03/19 08:11:48;;;;;;;35.50;29.60;;;;;;;11.23;42.70;100499.44;110095;1266;23735;-79
2023/03/19 08:14:21;;;;;;;36.20;30.50;;;;;;;11.23;42.63;100494.92;109632;1271;21986;-78
2023/03/19 08:16:54;;;;;;;38.70;29.10;;;;;;;11.25;42.53;100497.95;109055;1276;23002;-79
2023/03/19 08:19:31;;;;;;;36.50;29.80;;;;;;;11.31;42.64;100497.23;108898;1270;23049;-80
2023/03/19 08:21:59;;;;;;;36.20;27.30;;;;;;;11.34;42.58;100504.45;109061;1273;23751;-79
2023/03/19 08:24:28;;;;;;;39.90;31.30;;;;;;;11.40;42.58;100509.06;109258;1272;23024;-80
2023/03/19 08:27:01;;;;;;;33.60;28.50;;;;;;;11.48;42.58;100507.35;109428;1272;22000;-79
2023/03/19 08:29:30;;;;;;;43.10;32.70;;;;;;;11.61;42.51;100507.89;109452;1272;21970;-80
2023/03/19 08:32:00;;;;;;;47.00;37.70;;;;;;;11.79;42.45;100506.14;109659;1266;22954;-79
2023/03/19 08:34:29;;;;;;;34.50;31.00;;;;;;;11.86;41.71;100505.72;110047;1260;21964;-79
2023/03/19 08:36:57;;;;;;;36.60;31.70;;;;;;;11.94;41.97;100504.35;110617;1260;21965;-81
2023/03/19 08:39:32;;;;;;;31.70;28.50;;;;;;;12.12;41.93;100499.96;110689;1260;21988;-82
2023/03/19 08:42:09;;;;;;;29.70;26.60;;;;;;;12.42;41.63;100495.02;110806;1260;21970;-79
2023/03/19 08:44:37;;;;;;;34.10;28.10;;;;;;;12.60;41.07;100489.88;110791;1260;22904;-79
2023/03/19 08:47:07;;;;;;;34.60;28.30;;;;;;;12.90;41.10;100486.77;110750;1259;24289;-78
2023/03/19 08:49:39;;;;;;;32.00;24.60;;;;;;;13.28;40.81;100485.42;110547;1260;22893;-80
2023/03/19 08:52:14;;;;;;;29.60;24.80;;;;;;;13.81;40.77;100479.23;110738;1260;22004;-81
2023/03/19 08:54:45;;;;;;;38.40;24.20;;;;;;;14.35;39.99;100487.02;110773;1259;22718;-80
2023/03/19 08:57:14;;;;;;;25.30;22.60;;;;;;;14.77;39.31;100491.84;110664;1259;23722;-81
2023/03/19 08:59:43;;;;;;;32.50;24.00;;;;;;;15.13;38.63;100501.19;110719;1260;23112;-80
2023/03/19 09:02:17;;;;;;;24.90;20.60;;;;;;;15.44;38.02;100499.28;110751;1260;21970;-80
2023/03/19 09:04:51;;;;;;;24.20;20.00;;;;;;;15.69;36.80;100491.39;110659;1259;21936;-79
2023/03/19 09:07:22;;;;;;;25.70;19.70;;;;;;;15.87;36.80;100484.59;110772;1259;21963;-79
2023/03/19 09:09:53;;;;;;;22.80;18.60;;;;;;;16.12;36.05;100479.46;109729;1266;21980;-79
2023/03/19 09:12:22;;;;;;;28.50;25.40;;;;;;;16.35;35.83;100475.30;110027;1266;21974;-77
2023/03/19 09:14:51;;;;;;;21.30;19.10;;;;;;;16.49;35.13;100470.58;109706;1266;23033;-79
2023/03/19 09:17:20;;;;;;;21.80;18.00;;;;;;;16.58;35.12;100470.04;110171;1266;21972;-78
2023/03/19 09:19:56;;;;;;;21.50;17.80;;;;;;;16.51;34.33;100472.95;109340;1271;23906;-81
2023/03/19 09:22:30;;;;;;;17.70;15.00;;;;;;;16.55;34.72;100473.42;109464;1271;22977;-80
2023/03/19 09:24:58;;;;;;;20.60;18.40;;;;;;;16.73;34.79;100474.06;109429;1271;23747;-80
2023/03/19 09:27:27;;;;;;;19.50;16.50;;;;;;;16.97;34.41;100479.27;109293;1266;22266;-79
2023/03/19 09:29:57;;;;;;;23.80;19.40;;;;;;;17.13;34.10;100476.90;109402;1271;23848;-79
2023/03/19 09:32:24;;;;;;;28.80;22.60;;;;;;;17.38;34.35;100475.48;109228;1273;21990;-79
2023/03/19 09:34:54;;;;;;;20.20;17.90;;;;;;;17.74;34.40;100477.02;109478;1273;22010;-80
2023/03/19 09:37:24;;;;;;;20.50;18.40;;;;;;;18.01;33.69;100477.02;109323;1267;23656;-79
2023/03/19 09:39:52;;;;;;;20.70;15.10;;;;;;;18.27;33.46;100480.15;110217;1263;22011;-78
2023/03/19 09:42:49;;;;;;;19.20;15.50;;;;;;;18.53;32.76;100478.23;110293;1267;23110;-79
2023/03/19 09:45:21;;;;;;;22.90;20.30;;;;;;;18.40;31.23;100475.27;110209;1262;21995;-80
2023/03/19 09:48:00;;;;;;;19.40;15.90;;;;;;;18.28;31.87;100473.08;110207;1260;21960;-79
2023/03/19 09:50:38;;;;;;;18.30;15.10;;;;;;;18.49;32.20;100480.08;110834;1260;21926;-80
2023/03/19 09:53:46;;;;;;;17.80;15.80;;;;;;;18.59;31.76;100476.61;111068;1259;21979;-80
2023/03/19 09:56:18;;;;;;;20.60;16.10;;;;;;;18.89;31.69;100475.42;110153;1266;21953;-78
2023/03/19 09:58:46;;;;;;;19.60;16.80;;;;;;;18.98;30.34;100475.48;109393;1273;21983;-79
2023/03/19 10:01:32;;;;;;;15.70;14.10;;;;;;;18.83;30.55;100476.84;109158;1275;21985;-80
2023/03/19 10:04:31;;;;;;;19.60;14.30;;;;;;;18.78;31.03;100474.77;108630;1280;23001;-78
2023/03/19 10:07:21;;;;;;;18.60;14.30;;;;;;;18.77;30.87;100472.55;108681;1279;21999;-78
2023/03/19 10:10:17;;;;;;;17.40;15.50;;;;;;;18.84;31.06;100472.40;108948;1279;22712;-77
2023/03/19 10:12:48;;;;;;;35.90;32.10;;;;;;;18.88;30.67;100471.08;108970;1279;23473;-79
2023/03/19 10:15:34;;;;;;;17.20;15.10;;;;;;;19.00;31.27;100469.16;108640;1280;23164;-79
2023/03/19 10:18:31;;;;;;;16.20;13.60;;;;;;;19.23;30.99;100462.73;109271;1274;21982;-77
2023/03/19 10:21:16;;;;;;;15.30;13.00;;;;;;;19.40;30.44;100457.66;109385;1271;21969;-79
2023/03/19 10:24:15;;;;;;;15.20;13.60;;;;;;;19.27;30.30;100454.95;110070;1265;23109;-78
2023/03/19 10:26:46;;;;;;;26.20;23.90;;;;;;;19.11;30.41;100453.23;110225;1263;21968;-78
2023/03/19 10:29:19;;;;;;;18.50;16.80;;;;;;;19.10;30.51;100451.05;109983;1265;23625;-79
2023/03/19 10:32:04;;;;;;;18.60;14.50;;;;;;;19.29;30.99;100452.49;110137;1265;22436;-81
2023/03/19 10:34:42;;;;;;;19.30;14.40;;;;;;;19.40;30.59;100449.56;110683;1259;23047;-79
2023/03/19 10:37:29;;;;;;;15.00;13.40;;;;;;;19.45;30.06;100451.14;110931;1259;22486;-79
2023/03/19 10:39:59;;;;;;;18.40;14.40;;;;;;;19.48;30.04;100449.83;111036;1259;21966;-78
2023/03/19 10:43:00;;;;;;;16.70;14.30;;;;;;;19.61;30.17;100443.39;110778;1259;21993;-77
2023/03/19 10:45:37;;;;;;;15.50;13.90;;;;;;;19.94;30.00;100436.89;110803;1259;23189;-79
2023/03/19 10:48:19;;;;;;;13.50;12.20;;;;;;;20.19;29.24;100441.89;110794;1260;21966;-81
2023/03/19 10:50:54;;;;;;;15.70;14.10;;;;;;;20.52;29.57;100446.95;110413;1260;21990;-79
2023/03/19 10:53:34;;;;;;;16.20;13.70;;;;;;;20.99;29.00;100454.27;110726;1259;21964;-80
2023/03/19 10:56:29;;;;;;;19.20;14.90;;;;;;;21.01;27.87;100454.23;110775;1259;23697;-78
2023/03/19 10:59:20;;;;;;;15.00;12.60;;;;;;;20.94;28.07;100450.36;110587;1259;24290;-80
2023/03/19 11:01:48;;;;;;;15.70;14.20;;;;;;;20.57;27.87;100441.85;109871;1266;21973;-79
2023/03/19 11:04:23;;;;;;;17.70;13.40;;;;;;;20.38;28.78;100439.38;109412;1270;22030;-79
2023/03/19 11:07:13;;;;;;;15.10;12.30;;;;;;;20.51;28.61;100431.52;109459;1270;21979;-80
2023/03/19 11:09:49;;;;;;;15.90;14.00;;;;;;;20.35;28.14;100419.46;109454;1270;22748;-79
2023/03/19 11:12:36;;;;;;;19.50;14.70;;;;;;;20.29;28.65;100418.01;109645;1270;22021;-79
2023/03/19 11:15:25;;;;;;;16.90;12.80;;;;;;;20.26;28.50;100415.93;109251;1274;21986;-80
2023/03/19 11:18:00;;;;;;;16.50;12.60;;;;;;;20.03;28.25;100414.16;109140;1274;22816;-79
2023/03/19 11:20:32;;;;;;;14.30;12.30;;;;;;;19.44;27.95;100411.64;109115;1274;22166;-78
2023/03/19 11:23:10;;;;;;;13.50;12.20;;;;;;;18.97;29.00;100410.52;109367;1271;22350;-80
2023/03/19 11:25:46;;;;;;;14.20;12.80;;;;;;;18.63;29.35;100411.98;109537;1264;22803;-78
2023/03/19 11:28:20;;;;;;;14.90;12.60;;;;;;;18.50;29.71;100404.62;110349;1264;23050;-78
2023/03/19 11:31:18;;;;;;;19.10;13.60;;;;;;;18.41;29.64;100401.02;110411;1264;23089;-78
2023/03/19 11:34:17;;;;;;;15.00;13.50;;;;;;;18.15;29.86;100397.73;110759;1259;21964;-80
2023/03/19 11:37:14;;;;;;;15.90;14.30;;;;;;;18.02;30.42;100394.38;110905;1259;21977;-78